createdAt,value
2018-05-18T00:00:14.746Z,8.46
2018-05-18T00:02:42.402Z,8.45
2018-05-18T00:05:09.947Z,8.33
2018-05-18T00:07:37.453Z,8.41
2018-05-18T00:10:05.163Z,8.38
2018-05-18T00:12:32.740Z,8.48
2018-05-18T00:15:00.304Z,8.48
2018-05-18T00:17:27.810Z,8.45
2018-05-18T00:19:55.346Z,8.51
2018-05-18T00:22:22.859Z,8.61
2018-05-18T00:24:50.383Z,8.63
2018-05-18T00:27:17.894Z,8.75
2018-05-18T00:29:45.428Z,8.80
2018-05-18T00:32:12.930Z,8.90
2018-05-18T00:34:40.502Z,8.87
2018-05-18T00:37:08.038Z,9.05
2018-05-18T00:39:35.579Z,9.12
2018-05-18T00:42:03.099Z,9.15
2018-05-18T00:44:30.631Z,9.24
2018-05-18T00:46:58.419Z,9.31
2018-05-18T00:49:26.035Z,9.39
2018-05-18T00:51:53.649Z,9.28
2018-05-18T00:54:21.178Z,9.34
2018-05-18T00:56:48.688Z,9.32
2018-05-18T00:59:16.236Z,9.45
2018-05-18T01:01:43.803Z,9.34
2018-05-18T01:04:11.349Z,9.45
2018-05-18T01:06:39.136Z,9.45
2018-05-18T01:09:06.659Z,9.56
2018-05-18T01:11:34.183Z,9.55
2018-05-18T01:14:01.721Z,9.57
2018-05-18T01:16:29.286Z,9.43
2018-05-18T01:18:56.811Z,9.49
2018-05-18T01:21:24.356Z,9.55
2018-05-18T01:23:51.863Z,9.46
2018-05-18T01:26:19.443Z,9.51
2018-05-18T01:28:47.038Z,9.54
2018-05-18T01:31:14.594Z,9.50
2018-05-18T01:33:42.132Z,9.54
2018-05-18T01:36:09.652Z,9.43
2018-05-18T01:38:37.156Z,9.48
2018-05-18T01:41:04.675Z,9.50
2018-05-18T01:43:32.220Z,9.56
2018-05-18T01:45:59.747Z,9.45
2018-05-18T01:48:27.287Z,9.60
2018-05-18T01:50:54.830Z,9.43
2018-05-18T01:53:22.331Z,9.42
2018-05-18T01:55:49.885Z,9.47
2018-05-18T01:58:17.410Z,9.47
2018-05-18T02:00:44.956Z,9.44
2018-05-18T02:03:12.463Z,9.48
2018-05-18T02:05:39.998Z,9.43
2018-05-18T02:08:07.510Z,9.50
2018-05-18T02:10:35.090Z,9.45
2018-05-18T02:13:02.638Z,9.54
2018-05-18T02:15:30.197Z,9.49
2018-05-18T02:17:57.692Z,9.60
2018-05-18T02:20:25.207Z,9.55
2018-05-18T02:22:52.716Z,9.62
2018-05-18T02:25:20.314Z,9.53
2018-05-18T02:27:47.858Z,9.58
2018-05-18T02:30:15.406Z,9.48
2018-05-18T02:32:42.994Z,9.46
2018-05-18T02:35:10.539Z,9.46
2018-05-18T02:37:38.087Z,9.51
2018-05-18T02:40:05.670Z,9.55
2018-05-18T02:42:33.200Z,9.47
2018-05-18T02:45:00.775Z,9.59
2018-05-18T02:47:28.602Z,9.61
2018-05-18T02:49:56.102Z,9.46
2018-05-18T02:52:23.712Z,9.45
2018-05-18T02:54:51.206Z,9.59
2018-05-18T02:57:19.691Z,9.51
2018-05-18T02:59:47.234Z,9.34
2018-05-18T03:02:14.730Z,9.47
2018-05-18T03:04:42.250Z,9.29
2018-05-18T03:07:09.779Z,9.29
2018-05-18T03:09:37.312Z,9.29
2018-05-18T03:12:04.876Z,9.23
2018-05-18T03:14:32.434Z,9.31
2018-05-18T03:16:59.959Z,9.31
2018-05-18T03:19:27.535Z,9.31
2018-05-18T03:21:55.090Z,9.37
2018-05-18T03:24:22.670Z,9.28
2018-05-18T03:26:50.227Z,9.30
2018-05-18T03:29:17.747Z,9.29
2018-05-18T03:31:45.262Z,9.20
2018-05-18T03:34:12.756Z,9.26
2018-05-18T03:36:40.285Z,9.23
2018-05-18T03:39:07.806Z,9.17
2018-05-18T03:41:35.398Z,9.18
2018-05-18T03:44:02.969Z,9.21
2018-05-18T03:46:30.506Z,9.19
2018-05-18T03:48:58.052Z,9.22
2018-05-18T03:51:25.602Z,9.30
2018-05-18T04:37:33.706Z,9.43
2018-05-18T04:40:01.198Z,9.24
2018-05-18T04:42:28.707Z,9.18
2018-05-18T04:44:56.186Z,9.29
2018-05-18T04:47:23.684Z,9.46
2018-05-18T04:49:51.141Z,9.42
2018-05-18T04:52:18.644Z,9.26
2018-05-18T04:54:46.127Z,9.35
2018-05-18T04:57:13.590Z,9.29
2018-05-18T04:59:41.074Z,9.28
2018-05-18T05:02:08.538Z,9.39
2018-05-18T05:04:36.018Z,9.31
2018-05-18T05:07:03.490Z,9.29
2018-05-18T05:09:30.973Z,9.26
2018-05-18T05:11:58.464Z,9.41
2018-05-18T05:14:25.963Z,9.17
2018-05-18T05:16:53.442Z,9.09
2018-05-18T05:19:20.949Z,9.17
2018-05-18T05:21:48.409Z,9.29
2018-05-18T05:24:15.907Z,9.29
2018-05-18T05:26:43.398Z,9.22
2018-05-18T05:29:10.886Z,9.17
2018-05-18T05:31:38.341Z,9.23
2018-05-18T05:34:05.834Z,9.18
2018-05-18T05:36:33.422Z,9.42
2018-05-18T05:39:00.843Z,9.10
2018-05-18T05:41:28.303Z,9.40
2018-05-18T05:43:55.785Z,9.43
2018-05-18T05:46:23.245Z,9.56
2018-05-18T05:48:50.734Z,9.54
2018-05-18T05:51:18.198Z,9.45
2018-05-18T05:53:45.685Z,9.33
2018-05-18T05:56:13.174Z,9.48
2018-05-18T05:58:40.674Z,9.41
2018-05-18T06:01:08.143Z,9.36
2018-05-18T06:03:35.630Z,9.55
2018-05-18T06:06:03.170Z,9.62
2018-05-18T06:08:33.412Z,9.66
2018-05-18T06:11:00.886Z,9.50
2018-05-18T06:22:06.760Z,9.56
2018-05-18T06:24:34.994Z,9.78
2018-05-18T06:27:02.480Z,10.01
2018-05-18T06:29:29.962Z,9.70
2018-05-18T06:31:57.430Z,9.88
2018-05-18T06:34:24.933Z,9.79
2018-05-18T06:36:52.403Z,10.08
2018-05-18T06:39:19.893Z,9.84
2018-05-18T06:41:47.362Z,9.85
2018-05-18T06:44:14.852Z,9.95
2018-05-18T06:46:42.346Z,10.08
2018-05-18T06:49:09.847Z,10.24
2018-05-18T06:51:37.670Z,9.86
2018-05-18T06:54:05.146Z,10.28
2018-05-18T06:56:32.638Z,10.22
2018-05-18T06:59:00.110Z,10.25
2018-05-18T07:01:27.606Z,10.48
2018-05-18T07:03:55.091Z,10.27
2018-05-18T07:06:22.588Z,10.04
2018-05-18T07:08:50.059Z,10.13
2018-05-18T07:11:17.577Z,10.76
2018-05-18T07:13:45.052Z,10.60
2018-05-18T07:16:12.546Z,10.61
2018-05-18T07:18:40.027Z,10.87
2018-05-18T07:21:07.517Z,10.36
2018-05-18T07:23:35.026Z,10.93
2018-05-18T07:26:02.527Z,10.74
2018-05-18T07:28:29.999Z,10.63
2018-05-18T07:30:57.507Z,10.83
2018-05-18T07:33:24.994Z,11.28
2018-05-18T07:35:52.503Z,11.27
2018-05-18T07:38:19.979Z,11.59
2018-05-18T07:40:47.479Z,11.62
2018-05-18T07:43:14.967Z,11.94
2018-05-18T07:45:43.399Z,11.02
2018-05-18T07:48:10.871Z,11.01
2018-05-18T07:50:38.474Z,11.48
2018-05-18T07:53:05.940Z,11.90
2018-05-18T07:55:33.444Z,11.47
2018-05-18T07:58:00.923Z,11.72
2018-05-18T08:00:28.414Z,12.23
2018-05-18T08:02:55.905Z,11.23
2018-05-18T08:05:23.393Z,11.31
2018-05-18T08:07:50.913Z,11.70
2018-05-18T08:10:18.402Z,11.21
2018-05-18T08:12:45.892Z,11.14
2018-05-18T08:15:13.449Z,10.83
2018-05-18T08:17:40.886Z,11.33
2018-05-18T08:20:08.366Z,11.59
2018-05-18T08:22:35.876Z,10.87
2018-05-18T08:25:03.349Z,11.33
2018-05-18T08:27:31.874Z,11.43
2018-05-18T08:29:59.341Z,11.87
2018-05-18T08:32:26.853Z,11.03
2018-05-18T08:34:54.557Z,11.53
2018-05-18T08:37:22.118Z,11.65
2018-05-18T08:39:49.594Z,12.13
2018-05-18T08:42:17.082Z,12.19
2018-05-18T08:44:44.563Z,12.15
2018-05-18T08:47:12.132Z,11.72
2018-05-18T08:49:39.606Z,11.89
2018-05-18T08:52:07.106Z,12.24
2018-05-18T08:54:34.581Z,12.72
2018-05-18T08:57:02.085Z,13.20
2018-05-18T08:59:29.549Z,12.01
2018-05-18T09:01:57.054Z,11.49
2018-05-18T09:04:24.573Z,12.39
2018-05-18T09:06:52.066Z,12.57
2018-05-18T09:09:19.558Z,13.36
2018-05-18T09:11:47.058Z,12.22
2018-05-18T09:14:14.534Z,12.30
2018-05-18T09:16:42.010Z,12.25
2018-05-18T09:19:09.508Z,11.80
2018-05-18T09:21:36.986Z,11.69
2018-05-18T09:24:04.478Z,12.37
2018-05-18T09:26:32.035Z,12.30
2018-05-18T09:28:59.475Z,12.76
2018-05-18T09:31:26.947Z,13.26
2018-05-18T09:33:54.469Z,13.75
2018-05-18T09:36:22.010Z,13.19
2018-05-18T09:38:49.550Z,13.93
2018-05-18T09:41:17.036Z,13.41
2018-05-18T09:43:44.546Z,13.39
2018-05-18T09:46:12.034Z,13.10
2018-05-18T09:48:39.538Z,13.58
2018-05-18T09:51:07.012Z,13.48
2018-05-18T09:53:34.514Z,12.51
2018-05-18T09:56:01.985Z,12.46
2018-05-18T09:58:29.494Z,12.60
2018-05-18T10:00:56.968Z,13.15
2018-05-18T10:03:24.462Z,12.68
2018-05-18T10:05:51.938Z,13.10
2018-05-18T10:08:19.427Z,13.32
2018-05-18T10:13:21.037Z,13.33
2018-05-18T10:15:48.597Z,13.37
2018-05-18T10:18:16.020Z,13.64
2018-05-18T10:20:43.495Z,13.07
2018-05-18T10:23:10.993Z,13.57
2018-05-18T10:25:38.473Z,13.72
2018-05-18T10:28:05.961Z,13.56
2018-05-18T10:30:33.431Z,13.45
2018-05-18T10:33:00.921Z,13.44
2018-05-18T10:35:28.386Z,13.55
2018-05-18T10:37:55.847Z,13.62
2018-05-18T10:40:23.342Z,13.41
2018-05-18T10:42:50.883Z,13.57
2018-05-18T10:45:18.376Z,14.19
2018-05-18T10:47:45.858Z,13.75
2018-05-18T10:50:13.350Z,13.85
2018-05-18T10:52:40.839Z,13.84
2018-05-18T10:55:08.341Z,13.98
2018-05-18T10:57:35.818Z,14.36
2018-05-18T11:00:03.334Z,14.69
2018-05-18T11:02:30.798Z,14.54
2018-05-18T11:04:58.291Z,14.61
2018-05-18T11:07:25.754Z,14.47
2018-05-18T11:09:53.237Z,14.20
2018-05-18T11:12:20.709Z,14.71
2018-05-18T11:14:48.203Z,15.06
2018-05-18T11:17:15.682Z,15.00
2018-05-18T11:19:43.166Z,14.48
2018-05-18T11:22:10.637Z,14.23
2018-05-18T11:24:38.133Z,14.93
2018-05-18T11:27:05.611Z,14.74
2018-05-18T11:29:33.110Z,15.23
2018-05-18T11:32:00.585Z,15.21
2018-05-18T11:34:28.073Z,15.75
2018-05-18T11:36:55.549Z,15.42
2018-05-18T11:39:23.043Z,14.94
2018-05-18T11:41:50.515Z,15.25
2018-05-18T11:44:18.007Z,15.36
2018-05-18T11:46:45.487Z,15.52
2018-05-18T11:49:12.983Z,15.68
2018-05-18T11:51:40.447Z,15.68
2018-05-18T11:54:07.953Z,15.00
2018-05-18T11:56:35.422Z,15.40
2018-05-18T11:59:02.894Z,15.74
2018-05-18T12:01:30.387Z,15.56
2018-05-18T12:03:57.855Z,15.58
2018-05-18T12:06:26.325Z,15.91
2018-05-18T12:08:53.797Z,16.08
2018-05-18T12:11:21.285Z,16.26
2018-05-18T12:13:48.754Z,16.59
2018-05-18T12:16:16.247Z,16.76
2018-05-18T12:18:43.717Z,17.15
2018-05-18T12:21:11.224Z,16.44
2018-05-18T12:23:38.698Z,16.08
2018-05-18T12:26:06.332Z,16.60
2018-05-18T12:28:33.811Z,17.35
2018-05-18T12:31:01.343Z,17.03
2018-05-18T12:33:28.807Z,16.84
2018-05-18T12:35:56.295Z,16.68
2018-05-18T12:38:23.777Z,16.58
2018-05-18T12:40:52.290Z,17.07
2018-05-18T12:43:19.755Z,17.52
2018-05-18T12:45:47.248Z,16.24
2018-05-18T12:48:14.721Z,16.26
2018-05-18T12:50:42.219Z,17.12
2018-05-18T12:53:09.686Z,17.02
2018-05-18T12:55:37.187Z,16.62
2018-05-18T12:58:04.654Z,17.14
2018-05-18T13:00:32.152Z,16.96
2018-05-18T13:02:59.702Z,17.46
2018-05-18T13:05:27.191Z,17.61
2018-05-18T13:07:54.662Z,17.83
2018-05-18T13:10:22.174Z,18.55
2018-05-18T13:12:49.654Z,18.81
2018-05-18T13:15:17.121Z,17.88
2018-05-18T13:17:44.614Z,18.83
2018-05-18T13:20:12.871Z,18.75
2018-05-18T13:22:40.366Z,19.12
2018-05-18T13:25:07.835Z,18.57
2018-05-18T13:27:35.325Z,18.74
2018-05-18T13:30:02.800Z,19.05
2018-05-18T13:32:30.288Z,21.22
2018-05-18T13:34:57.757Z,21.15
2018-05-18T13:37:25.242Z,20.78
2018-05-18T13:39:52.715Z,19.49
2018-05-18T13:42:20.209Z,20.88
2018-05-18T13:44:47.785Z,22.16
2018-05-18T13:47:15.200Z,20.81
2018-05-18T13:49:42.673Z,21.52
2018-05-18T13:52:10.165Z,20.82
2018-05-18T13:54:37.671Z,19.51
2018-05-18T13:57:05.210Z,21.69
2018-05-18T13:59:32.650Z,20.35
2018-05-18T14:02:00.197Z,20.22
2018-05-18T14:04:27.666Z,20.04
2018-05-18T14:06:55.158Z,20.86
2018-05-18T14:09:22.624Z,20.67
2018-05-18T14:11:50.116Z,19.23
2018-05-18T14:14:17.594Z,21.37
2018-05-18T14:16:45.102Z,23.14
2018-05-18T14:19:12.578Z,20.85
2018-05-18T14:21:40.074Z,20.29
2018-05-18T14:24:07.558Z,21.76
2018-05-18T14:26:35.049Z,22.99
2018-05-18T14:29:02.514Z,22.44
2018-05-18T14:31:30.013Z,20.21
2018-05-18T14:33:57.484Z,20.89
2018-05-18T14:36:24.945Z,21.33
2018-05-18T14:38:52.450Z,21.17
2018-05-18T14:41:19.927Z,20.95
2018-05-18T14:43:47.435Z,21.32
2018-05-18T14:46:14.916Z,22.25
2018-05-18T14:48:42.418Z,21.99
2018-05-18T14:51:09.933Z,21.87
2018-05-18T14:53:37.398Z,21.49
2018-05-18T14:56:04.871Z,20.31
2018-05-18T14:58:32.460Z,21.61
2018-05-18T15:00:59.878Z,21.89
2018-05-18T15:03:27.365Z,20.81
2018-05-18T15:05:54.833Z,20.48
2018-05-18T15:08:22.317Z,20.64
2018-05-18T15:10:49.787Z,21.00
2018-05-18T15:13:17.277Z,20.24
2018-05-18T15:15:44.750Z,20.55
2018-05-18T15:18:12.233Z,19.82
2018-05-18T15:20:39.710Z,20.39
2018-05-18T15:23:07.227Z,20.03
2018-05-18T15:25:34.714Z,20.55
2018-05-18T15:28:02.207Z,20.51
2018-05-18T15:30:29.681Z,21.16
2018-05-18T15:32:57.165Z,20.37
2018-05-18T15:35:24.630Z,19.47
2018-05-18T15:37:52.122Z,21.04
2018-05-18T15:40:19.607Z,21.70
2018-05-18T15:42:47.110Z,21.55
2018-05-18T15:45:14.584Z,19.71
2018-05-18T15:47:42.074Z,19.87
2018-05-18T15:50:09.547Z,20.17
2018-05-18T15:52:37.055Z,19.92
2018-05-18T15:55:04.529Z,20.14
2018-05-18T15:57:32.078Z,20.53
2018-05-18T15:59:59.508Z,20.22
2018-05-18T16:02:26.978Z,20.43
2018-05-18T16:04:54.462Z,20.84
2018-05-18T16:07:21.949Z,21.10
2018-05-18T16:09:49.454Z,19.86
2018-05-18T16:12:16.929Z,20.71
2018-05-18T16:14:44.456Z,20.13
2018-05-18T16:17:11.981Z,19.70
2018-05-18T16:19:39.470Z,20.55
2018-05-18T16:22:06.948Z,19.91
2018-05-18T16:24:34.447Z,20.83
2018-05-18T16:27:01.930Z,20.31
2018-05-18T16:29:29.425Z,20.95
2018-05-18T16:31:56.899Z,20.14
2018-05-18T16:34:24.392Z,19.53
2018-05-18T16:36:51.870Z,19.55
2018-05-18T16:39:19.359Z,18.83
2018-05-18T16:41:46.830Z,19.23
2018-05-18T16:44:14.325Z,20.21
2018-05-18T16:46:41.794Z,20.26
2018-05-18T16:49:09.295Z,19.16
2018-05-18T16:51:36.763Z,18.91
2018-05-18T16:54:04.250Z,18.13
2018-05-18T16:56:31.730Z,18.76
2018-05-18T16:58:59.222Z,18.36
2018-05-18T17:01:27.040Z,18.21
2018-05-18T17:03:54.528Z,18.34
2018-05-18T17:06:21.996Z,17.84
2018-05-18T17:08:49.480Z,17.43
2018-05-18T17:11:16.949Z,17.11
2018-05-18T17:13:44.438Z,17.02
2018-05-18T17:16:11.918Z,17.25
2018-05-18T17:18:39.386Z,17.26
2018-05-18T17:21:06.870Z,16.88
2018-05-18T17:23:34.381Z,17.06
2018-05-18T17:26:01.863Z,17.04
2018-05-18T17:28:29.335Z,16.95
2018-05-18T17:30:56.834Z,16.76
2018-05-18T17:33:24.319Z,16.65
2018-05-18T17:35:51.827Z,16.66
2018-05-18T17:38:19.298Z,16.64
2018-05-18T17:40:46.810Z,16.46
2018-05-18T17:43:14.286Z,16.80
2018-05-18T17:45:41.783Z,16.76
2018-05-18T17:48:09.262Z,16.74
2018-05-18T17:50:36.759Z,16.68
2018-05-18T17:53:04.246Z,16.65
2018-05-18T17:55:31.729Z,16.62
2018-05-18T17:57:59.194Z,16.90
2018-05-18T18:00:26.687Z,17.01
2018-05-18T18:02:54.157Z,16.81
2018-05-18T18:05:21.669Z,17.03
2018-05-18T18:07:49.199Z,17.53
2018-05-18T18:10:16.701Z,17.27
2018-05-18T18:12:44.181Z,16.82
2018-05-18T18:15:11.662Z,16.76
2018-05-18T18:17:39.134Z,16.60
2018-05-18T18:20:07.488Z,16.28
2018-05-18T18:22:34.970Z,16.37
2018-05-18T18:25:02.480Z,16.34
2018-05-18T18:27:29.941Z,16.58
2018-05-18T18:29:57.421Z,16.63
2018-05-18T18:32:24.890Z,16.66
2018-05-18T18:34:52.383Z,16.36
2018-05-18T18:37:19.871Z,16.29
2018-05-18T18:39:47.337Z,16.08
2018-05-18T18:42:14.817Z,15.73
2018-05-18T18:44:42.290Z,15.96
2018-05-18T18:47:09.784Z,15.81
2018-05-18T18:49:37.256Z,15.81
2018-05-18T18:52:04.840Z,15.78
2018-05-18T18:54:32.238Z,15.71
2018-05-18T18:57:00.015Z,15.52
2018-05-18T18:59:27.498Z,15.43
2018-05-18T19:01:54.985Z,15.40
2018-05-18T19:04:22.511Z,15.36
2018-05-18T19:06:50.002Z,15.28
2018-05-18T19:09:17.478Z,15.32
2018-05-18T19:11:44.957Z,15.32
2018-05-18T19:14:12.434Z,15.31
2018-05-18T19:16:39.922Z,15.29
2018-05-18T19:19:07.395Z,15.23
2018-05-18T19:21:34.885Z,15.02
2018-05-18T19:24:02.366Z,15.03
2018-05-18T19:26:29.854Z,14.96
2018-05-18T19:28:57.329Z,14.95
2018-05-18T19:31:24.860Z,14.91
2018-05-18T19:33:52.344Z,14.84
2018-05-18T19:36:19.839Z,14.77
2018-05-18T19:38:47.570Z,14.73
2018-05-18T19:41:15.088Z,14.64
2018-05-18T19:43:42.619Z,14.67
2018-05-18T19:46:10.058Z,14.53
2018-05-18T19:48:37.533Z,14.54
2018-05-18T19:51:05.030Z,14.50
2018-05-18T19:53:32.514Z,14.53
2018-05-18T19:56:00.006Z,14.51
2018-05-18T19:58:27.486Z,14.41
2018-05-18T20:00:54.953Z,14.24
2018-05-18T20:03:22.434Z,14.08
2018-05-18T20:05:50.632Z,14.00
2018-05-18T20:08:18.128Z,13.81
2018-05-18T20:10:45.601Z,13.76
2018-05-18T20:13:13.134Z,13.79
2018-05-18T20:15:40.840Z,13.81
2018-05-18T20:18:08.326Z,13.78
2018-05-18T20:20:35.794Z,13.72
2018-05-18T20:23:03.281Z,13.66
2018-05-18T20:25:30.753Z,13.60
2018-05-18T20:27:58.244Z,13.61
2018-05-18T20:30:25.721Z,13.59
2018-05-18T20:32:53.211Z,13.49
2018-05-18T20:35:20.692Z,13.45
2018-05-18T20:37:48.182Z,13.46
2018-05-18T20:40:15.646Z,13.38
2018-05-18T20:42:43.139Z,13.26
2018-05-18T20:45:10.639Z,13.34
2018-05-18T20:47:38.106Z,13.28
2018-05-18T20:50:05.574Z,13.37
2018-05-18T20:52:33.062Z,13.33
2018-05-18T20:55:00.528Z,13.32
2018-05-18T20:57:28.016Z,13.37
2018-05-18T20:59:55.486Z,13.34
2018-05-18T21:02:22.986Z,13.43
2018-05-18T21:04:50.455Z,13.39
2018-05-18T21:07:17.944Z,13.42
2018-05-18T21:09:45.439Z,13.32
2018-05-18T21:12:12.905Z,13.35
2018-05-18T21:14:40.391Z,13.34
2018-05-18T21:17:07.882Z,13.34
2018-05-18T21:19:35.370Z,13.22
2018-05-18T21:22:02.845Z,13.16
2018-05-18T21:24:30.336Z,13.19
2018-05-18T21:26:57.800Z,13.22
2018-05-18T21:29:25.337Z,13.23
2018-05-18T21:31:52.809Z,13.18
2018-05-18T21:34:20.297Z,13.06
2018-05-18T21:36:47.759Z,12.98
2018-05-18T21:39:15.259Z,12.90
2018-05-18T21:41:42.735Z,12.88
2018-05-18T21:44:10.206Z,12.93
2018-05-18T21:46:37.698Z,12.90
2018-05-18T21:49:05.170Z,12.89
2018-05-18T21:51:32.658Z,12.87
2018-05-18T21:54:00.485Z,12.90
2018-05-18T21:56:27.971Z,12.90
2018-05-18T21:58:55.438Z,12.85
2018-05-18T22:01:22.933Z,12.80
2018-05-18T22:03:50.405Z,12.77
2018-05-18T22:06:17.890Z,12.63
2018-05-18T22:08:45.371Z,12.57
2018-05-18T22:11:12.857Z,12.47
2018-05-18T22:13:40.322Z,12.41
2018-05-18T22:16:07.847Z,12.30
2018-05-18T22:18:35.355Z,12.18
2018-05-18T22:21:02.841Z,12.08
2018-05-18T22:23:30.310Z,12.17
2018-05-18T22:25:57.809Z,12.16
2018-05-18T22:28:25.284Z,12.13
2018-05-18T22:30:52.750Z,12.05
2018-05-18T22:33:20.236Z,11.97
2018-05-18T22:35:47.710Z,11.89
